Time,TemperatureF,DewpointF,PressureIn,WindDirection,WindDirectionDegrees,WindSpeedMPH,WindSpeedGustMPH,Humidity,HourlyPrecipIn,Conditions,Clouds,dailyrainin,SoftwareType,DateUTC
2013-06-13 00:10:00,-999.0,-99.9,29.71,North,-999,-999.0,-999.0,-999,-99.99,,,0.00,weatherlink.com 1.10,2013-06-13 04:10:00,
2013-06-13 00:25:00,-999.0,-99.9,29.70,North,-999,-999.0,-999.0,-999,-99.99,,,0.00,weatherlink.com 1.10,2013-06-13 04:25:00,
2013-06-13 00:40:00,-999.0,-99.9,29.69,North,-999,-999.0,-999.0,-999,-99.99,,,0.00,weatherlink.com 1.10,2013-06-13 04:40:00,
2013-06-13 00:55:00,-999.0,-99.9,29.70,North,-999,-999.0,-999.0,-999,-99.99,,,0.00,weatherlink.com 1.10,2013-06-13 04:55:00,
2013-06-13 01:11:00,-999.0,-99.9,29.70,North,-999,-999.0,-999.0,-999,-99.99,,,0.00,weatherlink.com 1.10,2013-06-13 05:11:00,
2013-06-13 01:26:00,-999.0,-99.9,29.69,North,-999,-999.0,-999.0,-999,-99.99,,,0.00,weatherlink.com 1.10,2013-06-13 05:26:00,
2013-06-13 01:41:00,-999.0,-99.9,29.70,North,-999,-999.0,-999.0,-999,-99.99,,,0.00,weatherlink.com 1.10,2013-06-13 05:41:00,
2013-06-13 01:56:00,-999.0,-99.9,29.70,North,-999,-999.0,-999.0,-999,-99.99,,,0.00,weatherlink.com 1.10,2013-06-13 05:56:00,
2013-06-13 02:11:00,-999.0,-99.9,29.70,North,-999,-999.0,-999.0,-999,-99.99,,,0.00,weatherlink.com 1.10,2013-06-13 06:11:00,
2013-06-13 02:26:00,-999.0,-99.9,29.70,North,-999,-999.0,-999.0,-999,-99.99,,,0.00,weatherlink.com 1.10,2013-06-13 06:26:00,
2013-06-13 02:41:00,-999.0,-99.9,29.70,North,-999,-999.0,-999.0,-999,-99.99,,,0.00,weatherlink.com 1.10,2013-06-13 06:41:00,
2013-06-13 02:56:00,-999.0,-99.9,29.70,North,-999,-999.0,-999.0,-999,-99.99,,,0.00,weatherlink.com 1.10,2013-06-13 06:56:00,
2013-06-13 03:11:00,-999.0,-99.9,29.70,North,-999,-999.0,-999.0,-999,-99.99,,,0.00,weatherlink.com 1.10,2013-06-13 07:11:00,
2013-06-13 03:26:00,-999.0,-99.9,29.70,North,-999,-999.0,-999.0,-999,-99.99,,,0.00,weatherlink.com 1.10,2013-06-13 07:26:00,
2013-06-13 03:41:00,-999.0,-99.9,29.70,North,-999,-999.0,-999.0,-999,-99.99,,,0.00,weatherlink.com 1.10,2013-06-13 07:41:00,
2013-06-13 03:56:00,-999.0,-99.9,29.69,North,-999,-999.0,-999.0,-999,-99.99,,,0.00,weatherlink.com 1.10,2013-06-13 07:56:00,
2013-06-13 04:11:00,-999.0,-99.9,29.69,North,-999,-999.0,-999.0,-999,-99.99,,,0.00,weatherlink.com 1.10,2013-06-13 08:11:00,
2013-06-13 04:27:00,-999.0,-99.9,29.69,North,-999,-999.0,-999.0,-999,-99.99,,,0.00,weatherlink.com 1.10,2013-06-13 08:27:00,
2013-06-13 04:42:00,-999.0,-99.9,29.70,North,-999,-999.0,-999.0,-999,-99.99,,,0.00,weatherlink.com 1.10,2013-06-13 08:42:00,
2013-06-13 04:57:00,-999.0,-99.9,29.70,North,-999,-999.0,-999.0,-999,-99.99,,,0.00,weatherlink.com 1.10,2013-06-13 08:57:00,
2013-06-13 05:12:00,-999.0,-99.9,29.70,North,-999,-999.0,-999.0,-999,-99.99,,,0.00,weatherlink.com 1.10,2013-06-13 09:12:00,
2013-06-13 05:27:00,-999.0,-99.9,29.70,North,-999,-999.0,-999.0,-999,-99.99,,,0.00,weatherlink.com 1.10,2013-06-13 09:27:00,
2013-06-13 05:42:00,-999.0,-99.9,29.71,North,-999,-999.0,-999.0,-999,-99.99,,,0.00,weatherlink.com 1.10,2013-06-13 09:42:00,
2013-06-13 05:57:00,-999.0,-99.9,29.71,North,-999,-999.0,-999.0,-999,-99.99,,,0.00,weatherlink.com 1.10,2013-06-13 09:57:00,
2013-06-13 06:12:00,-999.0,-99.9,29.72,North,-999,-999.0,-999.0,-999,-99.99,,,0.00,weatherlink.com 1.10,2013-06-13 10:12:00,
2013-06-13 06:27:00,-999.0,-99.9,29.73,North,-999,-999.0,-999.0,-999,-99.99,,,0.00,weatherlink.com 1.10,2013-06-13 10:27:00,
2013-06-13 06:42:00,-999.0,-99.9,29.73,North,-999,-999.0,-999.0,-999,-99.99,,,0.00,weatherlink.com 1.10,2013-06-13 10:42:00,
2013-06-13 06:57:00,-999.0,-99.9,29.74,North,-999,-999.0,-999.0,-999,-99.99,,,0.00,weatherlink.com 1.10,2013-06-13 10:57:00,
2013-06-13 07:12:00,-999.0,-99.9,29.74,North,-999,-999.0,-999.0,-999,-99.99,,,0.00,weatherlink.com 1.10,2013-06-13 11:12:00,
2013-06-13 07:27:00,-999.0,-99.9,29.75,North,-999,-999.0,-999.0,-999,-99.99,,,0.00,weatherlink.com 1.10,2013-06-13 11:27:00,
2013-06-13 07:42:00,-999.0,-99.9,29.75,North,-999,-999.0,-999.0,-999,-99.99,,,0.00,weatherlink.com 1.10,2013-06-13 11:42:00,
2013-06-13 07:58:00,-999.0,-99.9,29.75,North,-999,-999.0,-999.0,-999,-99.99,,,0.00,weatherlink.com 1.10,2013-06-13 11:58:00,
2013-06-13 08:13:00,-999.0,-99.9,29.76,North,-999,-999.0,-999.0,-999,-99.99,,,0.00,weatherlink.com 1.10,2013-06-13 12:13:00,
2013-06-13 08:28:00,-999.0,-99.9,29.76,North,-999,-999.0,-999.0,-999,-99.99,,,0.00,weatherlink.com 1.10,2013-06-13 12:28:00,
2013-06-13 08:43:00,59.3,54.0,29.76,NNE,25,16.0,-999.0,82,-99.99,,,0.00,weatherlink.com 1.10,2013-06-13 12:43:00,
2013-06-13 08:58:00,60.3,54.0,29.77,North,9,5.0,-999.0,81,-99.99,,,0.00,weatherlink.com 1.10,2013-06-13 12:58:00,
2013-06-13 09:13:00,61.0,55.0,29.77,NE,34,5.0,-999.0,80,-99.99,,,0.00,weatherlink.com 1.10,2013-06-13 13:13:00,
2013-06-13 09:28:00,61.7,55.0,29.78,NE,38,10.0,-999.0,79,-99.99,,,0.00,weatherlink.com 1.10,2013-06-13 13:28:00,
2013-06-13 09:43:00,63.4,56.0,29.79,North,360,2.0,-999.0,78,-99.99,,,0.00,weatherlink.com 1.10,2013-06-13 13:43:00,
2013-06-13 09:58:00,64.2,57.0,29.79,NNE,28,0.0,-999.0,77,-99.99,,,0.00,weatherlink.com 1.10,2013-06-13 13:58:00,
2013-06-13 10:15:00,56.5,53.0,29.79,WNW,293,0.0,-999.0,87,-99.99,,,0.00,weatherlink.com 1.10,2013-06-13 14:15:00,
2013-06-13 10:28:00,56.3,53.0,29.80,WNW,290,0.0,-999.0,89,-99.99,,,0.00,weatherlink.com 1.10,2013-06-13 14:28:00,
2013-06-13 10:43:00,63.7,57.0,29.80,North,355,6.0,-999.0,80,-99.99,,,0.00,weatherlink.com 1.10,2013-06-13 14:43:00,
2013-06-13 10:58:00,66.0,58.0,29.80,NNE,25,13.0,-999.0,75,-99.99,,,0.00,weatherlink.com 1.10,2013-06-13 14:58:00,
2013-06-13 11:13:00,67.2,59.0,29.81,NNE,14,4.0,-999.0,74,-99.99,,,0.00,weatherlink.com 1.10,2013-06-13 15:13:00,
2013-06-13 11:28:00,67.1,58.0,29.81,North,11,10.0,-999.0,73,-99.99,,,0.00,weatherlink.com 1.10,2013-06-13 15:28:00,
2013-06-13 11:43:00,66.4,59.0,29.82,NNE,12,5.0,-999.0,76,-99.99,,,0.00,weatherlink.com 1.10,2013-06-13 15:43:00,
2013-06-13 11:58:00,66.9,59.0,29.82,NNW,347,2.0,-999.0,75,-99.99,,,0.00,weatherlink.com 1.10,2013-06-13 15:58:00,
2013-06-13 12:13:00,67.4,58.0,29.82,NNE,29,10.0,-999.0,73,-99.99,,,0.00,weatherlink.com 1.10,2013-06-13 16:13:00,
2013-06-13 12:28:00,68.8,60.0,29.82,NNE,20,2.0,-999.0,73,-99.99,,,0.00,weatherlink.com 1.10,2013-06-13 16:28:00,
2013-06-13 12:43:00,69.8,60.0,29.82,NNW,346,5.0,-999.0,71,-99.99,,,0.00,weatherlink.com 1.10,2013-06-13 16:43:00,
2013-06-13 12:58:00,70.8,60.0,29.82,NW,323,9.0,-999.0,68,-99.99,,,0.00,weatherlink.com 1.10,2013-06-13 16:58:00,
2013-06-13 13:14:00,71.8,59.0,29.82,North,10,7.0,-999.0,65,-99.99,,,0.00,weatherlink.com 1.10,2013-06-13 17:14:00,
2013-06-13 13:29:00,70.3,59.0,29.83,NNE,21,4.0,-999.0,67,-99.99,,,0.00,weatherlink.com 1.10,2013-06-13 17:29:00,
2013-06-13 13:44:00,69.9,59.0,29.84,NNE,20,4.0,-999.0,68,-99.99,,,0.00,weatherlink.com 1.10,2013-06-13 17:44:00,
2013-06-13 13:59:00,71.3,59.0,29.84,North,355,10.0,-999.0,65,-99.99,,,0.00,weatherlink.com 1.10,2013-06-13 17:59:00,
2013-06-13 14:14:00,71.9,60.0,29.84,NE,42,7.0,-999.0,66,-99.99,,,0.00,weatherlink.com 1.10,2013-06-13 18:14:00,
2013-06-13 14:29:00,73.3,59.0,29.83,NNE,25,4.0,-999.0,61,-99.99,,,0.00,weatherlink.com 1.10,2013-06-13 18:29:00,
2013-06-13 14:44:00,72.8,59.0,29.83,NNE,33,14.0,-999.0,62,-99.99,,,0.00,weatherlink.com 1.10,2013-06-13 18:44:00,
2013-06-13 14:59:00,72.9,59.0,29.84,NNE,26,7.0,-999.0,61,-99.99,,,0.00,weatherlink.com 1.10,2013-06-13 18:59:00,
2013-06-13 15:14:00,72.8,58.0,29.84,NNE,20,1.0,-999.0,60,-99.99,,,0.00,weatherlink.com 1.10,2013-06-13 19:14:00,
2013-06-13 15:29:00,73.1,58.0,29.84,North,5,0.0,-999.0,59,-99.99,,,0.00,weatherlink.com 1.10,2013-06-13 19:29:00,
2013-06-13 15:44:00,74.0,58.0,29.84,NNE,18,7.0,-999.0,57,-99.99,,,0.00,weatherlink.com 1.10,2013-06-13 19:44:00,
2013-06-13 15:59:00,73.2,57.0,29.85,NE,40,2.0,-999.0,58,-99.99,,,0.00,weatherlink.com 1.10,2013-06-13 19:59:00,
2013-06-13 16:14:00,72.6,58.0,29.85,North,360,5.0,-999.0,60,-99.99,,,0.00,weatherlink.com 1.10,2013-06-13 20:14:00,
2013-06-13 16:29:00,72.0,57.0,29.86,NE,46,5.0,-999.0,60,-99.99,,,0.00,weatherlink.com 1.10,2013-06-13 20:29:00,
2013-06-13 16:44:00,72.0,58.0,29.86,NNE,21,0.0,-999.0,62,-99.99,,,0.00,weatherlink.com 1.10,2013-06-13 20:44:00,
2013-06-13 16:59:00,71.8,58.0,29.87,NE,36,2.0,-999.0,62,-99.99,,,0.00,weatherlink.com 1.10,2013-06-13 20:59:00,
2013-06-13 17:14:00,71.7,58.0,29.87,North,11,5.0,-999.0,62,-99.99,,,0.00,weatherlink.com 1.10,2013-06-13 21:14:00,
2013-06-13 17:29:00,71.6,58.0,29.87,NNE,15,0.0,-999.0,62,-99.99,,,0.00,weatherlink.com 1.10,2013-06-13 21:29:00,
2013-06-13 17:44:00,72.4,58.0,29.87,NNE,30,9.0,-999.0,60,-99.99,,,0.00,weatherlink.com 1.10,2013-06-13 21:44:00,
2013-06-13 17:59:00,72.0,57.0,29.87,North,355,5.0,-999.0,59,-99.99,,,0.00,weatherlink.com 1.10,2013-06-13 21:59:00,
2013-06-13 18:14:00,71.9,57.0,29.88,North,5,0.0,-999.0,60,-99.99,,,0.00,weatherlink.com 1.10,2013-06-13 22:14:00,
2013-06-13 18:29:00,70.6,57.0,29.88,North,5,7.0,-999.0,62,-99.99,,,0.00,weatherlink.com 1.10,2013-06-13 22:29:00,
2013-06-13 18:44:00,69.9,57.0,29.89,North,349,0.0,-999.0,63,-99.99,,,0.00,weatherlink.com 1.10,2013-06-13 22:44:00,
2013-06-13 18:59:00,70.2,56.0,29.90,NNE,19,1.0,-999.0,62,-99.99,,,0.00,weatherlink.com 1.10,2013-06-13 22:59:00,
2013-06-13 19:14:00,69.8,57.0,29.90,NNE,21,0.0,-999.0,63,-99.99,,,0.00,weatherlink.com 1.10,2013-06-13 23:14:00,
2013-06-13 19:29:00,69.2,56.0,29.91,NNE,19,12.0,-999.0,64,-99.99,,,0.00,weatherlink.com 1.10,2013-06-13 23:29:00,
2013-06-13 19:44:00,68.8,56.0,29.91,NNE,18,9.0,-999.0,65,-99.99,,,0.00,weatherlink.com 1.10,2013-06-13 23:44:00,
2013-06-13 19:59:00,67.9,56.0,29.92,NNE,26,2.0,-999.0,65,-99.99,,,0.00,weatherlink.com 1.10,2013-06-13 23:59:00,
2013-06-13 20:14:00,67.0,55.0,29.92,NE,38,16.0,-999.0,66,-99.99,,,0.00,weatherlink.com 1.10,2013-06-14 00:14:00,
2013-06-13 20:29:00,65.9,55.0,29.93,NNE,33,0.0,-999.0,68,-99.99,,,0.00,weatherlink.com 1.10,2013-06-14 00:29:00,
2013-06-13 20:44:00,65.0,55.0,29.94,North,355,4.0,-999.0,70,-99.99,,,0.00,weatherlink.com 1.10,2013-06-14 00:44:00,
2013-06-13 20:59:00,64.0,54.0,29.94,NNE,14,4.0,-999.0,71,-99.99,,,0.00,weatherlink.com 1.10,2013-06-14 00:59:00,
2013-06-13 21:14:00,63.6,54.0,29.94,NNE,28,9.0,-999.0,71,-99.99,,,0.00,weatherlink.com 1.10,2013-06-14 01:14:00,
2013-06-13 21:29:00,-999.0,-99.9,29.94,North,-999,-999.0,-999.0,-999,-99.99,,,0.00,weatherlink.com 1.10,2013-06-14 01:29:00,
2013-06-13 21:44:00,-999.0,-99.9,29.94,North,-999,-999.0,-999.0,-999,-99.99,,,0.00,weatherlink.com 1.10,2013-06-14 01:44:00,
2013-06-13 21:59:00,-999.0,-99.9,29.95,North,-999,-999.0,-999.0,-999,-99.99,,,0.00,weatherlink.com 1.10,2013-06-14 01:59:00,
2013-06-13 22:15:00,-999.0,-99.9,29.95,North,-999,-999.0,-999.0,-999,-99.99,,,0.00,weatherlink.com 1.10,2013-06-14 02:15:00,
2013-06-13 22:30:00,-999.0,-99.9,29.95,North,-999,-999.0,-999.0,-999,-99.99,,,0.00,weatherlink.com 1.10,2013-06-14 02:30:00,
2013-06-13 22:45:00,-999.0,-99.9,29.95,North,-999,-999.0,-999.0,-999,-99.99,,,0.00,weatherlink.com 1.10,2013-06-14 02:45:00,
2013-06-13 23:00:00,-999.0,-99.9,29.96,North,-999,-999.0,-999.0,-999,-99.99,,,0.00,weatherlink.com 1.10,2013-06-14 03:00:00,
2013-06-13 23:15:00,-999.0,-99.9,29.96,North,-999,-999.0,-999.0,-999,-99.99,,,0.00,weatherlink.com 1.10,2013-06-14 03:15:00,
2013-06-13 23:30:00,-999.0,-99.9,29.97,North,-999,-999.0,-999.0,-999,-99.99,,,0.00,weatherlink.com 1.10,2013-06-14 03:30:00,
2013-06-13 23:45:00,-999.0,-99.9,29.97,North,-999,-999.0,-999.0,-999,-99.99,,,0.00,weatherlink.com 1.10,2013-06-14 03:45:00,